sensor_id;sensor_type;location;lat;lon;timestamp;P1;durP1;ratioP1;P2;durP2;ratioP2
35990;SDS011;22064;42.672;23.282;2023-09-18T00:00:02;26.05;;;15.45;;
35990;SDS011;22064;42.672;23.282;2023-09-18T00:02:34;26.88;;;16.02;;
35990;SDS011;22064;42.672;23.282;2023-09-18T00:05:00;26.50;;;15.70;;
35990;SDS011;22064;42.672;23.282;2023-09-18T00:07:25;29.20;;;16.58;;
35990;SDS011;22064;42.672;23.282;2023-09-18T00:09:51;28.10;;;16.08;;
35990;SDS011;22064;42.672;23.282;2023-09-18T00:12:18;28.58;;;16.23;;
35990;SDS011;22064;42.672;23.282;2023-09-18T00:14:47;27.42;;;16.55;;
35990;SDS011;22064;42.672;23.282;2023-09-18T00:17:14;29.30;;;17.23;;
35990;SDS011;22064;42.672;23.282;2023-09-18T00:19:39;28.13;;;16.80;;
35990;SDS011;22064;42.672;23.282;2023-09-18T00:22:06;25.98;;;15.38;;
35990;SDS011;22064;42.672;23.282;2023-09-18T00:24:31;30.33;;;17.67;;
35990;SDS011;22064;42.672;23.282;2023-09-18T00:26:57;27.65;;;15.73;;
35990;SDS011;22064;42.672;23.282;2023-09-18T00:29:23;27.00;;;16.48;;
35990;SDS011;22064;42.672;23.282;2023-09-18T00:31:49;29.10;;;17.00;;
35990;SDS011;22064;42.672;23.282;2023-09-18T00:34:15;28.80;;;16.80;;
35990;SDS011;22064;42.672;23.282;2023-09-18T00:36:41;27.98;;;17.02;;
35990;SDS011;22064;42.672;23.282;2023-09-18T00:39:07;28.02;;;16.20;;
35990;SDS011;22064;42.672;23.282;2023-09-18T00:41:33;25.90;;;15.45;;
35990;SDS011;22064;42.672;23.282;2023-09-18T00:43:59;32.75;;;17.55;;
35990;SDS011;22064;42.672;23.282;2023-09-18T00:46:25;29.67;;;16.50;;
35990;SDS011;22064;42.672;23.282;2023-09-18T00:48:52;29.10;;;17.27;;
35990;SDS011;22064;42.672;23.282;2023-09-18T00:51:19;28.58;;;17.10;;
35990;SDS011;22064;42.672;23.282;2023-09-18T00:53:45;31.40;;;16.95;;
35990;SDS011;22064;42.672;23.282;2023-09-18T00:56:16;32.03;;;17.08;;
35990;SDS011;22064;42.672;23.282;2023-09-18T00:58:42;30.70;;;16.58;;
35990;SDS011;22064;42.672;23.282;2023-09-18T01:01:11;29.00;;;17.88;;
35990;SDS011;22064;42.672;23.282;2023-09-18T01:03:37;29.52;;;16.40;;
35990;SDS011;22064;42.672;23.282;2023-09-18T01:06:03;27.58;;;15.43;;
35990;SDS011;22064;42.672;23.282;2023-09-18T01:08:29;29.33;;;17.45;;
35990;SDS011;22064;42.672;23.282;2023-09-18T01:10:56;30.40;;;17.70;;
35990;SDS011;22064;42.672;23.282;2023-09-18T01:13:35;29.35;;;17.38;;
35990;SDS011;22064;42.672;23.282;2023-09-18T01:16:20;28.27;;;16.83;;
35990;SDS011;22064;42.672;23.282;2023-09-18T01:18:53;29.15;;;17.42;;
35990;SDS011;22064;42.672;23.282;2023-09-18T01:21:19;28.70;;;17.40;;
35990;SDS011;22064;42.672;23.282;2023-09-18T01:23:46;29.50;;;17.67;;
35990;SDS011;22064;42.672;23.282;2023-09-18T01:26:13;27.38;;;17.13;;
35990;SDS011;22064;42.672;23.282;2023-09-18T01:28:39;29.85;;;17.58;;
35990;SDS011;22064;42.672;23.282;2023-09-18T01:31:05;31.63;;;17.33;;
35990;SDS011;22064;42.672;23.282;2023-09-18T01:33:32;29.40;;;17.35;;
35990;SDS011;22064;42.672;23.282;2023-09-18T01:35:59;32.28;;;18.50;;
35990;SDS011;22064;42.672;23.282;2023-09-18T01:38:26;30.52;;;17.20;;
35990;SDS011;22064;42.672;23.282;2023-09-18T01:40:54;29.42;;;17.27;;
35990;SDS011;22064;42.672;23.282;2023-09-18T01:43:20;30.70;;;17.65;;
35990;SDS011;22064;42.672;23.282;2023-09-18T01:45:46;31.67;;;17.58;;
35990;SDS011;22064;42.672;23.282;2023-09-18T01:48:13;30.98;;;18.85;;
35990;SDS011;22064;42.672;23.282;2023-09-18T01:50:39;32.65;;;19.63;;
35990;SDS011;22064;42.672;23.282;2023-09-18T01:53:06;34.20;;;18.38;;
35990;SDS011;22064;42.672;23.282;2023-09-18T01:55:32;30.40;;;18.42;;
35990;SDS011;22064;42.672;23.282;2023-09-18T01:57:58;28.10;;;18.00;;
35990;SDS011;22064;42.672;23.282;2023-09-18T02:00:24;29.25;;;18.00;;
35990;SDS011;22064;42.672;23.282;2023-09-18T02:02:52;29.50;;;17.00;;
35990;SDS011;22064;42.672;23.282;2023-09-18T02:05:18;33.42;;;19.05;;
35990;SDS011;22064;42.672;23.282;2023-09-18T02:07:44;30.05;;;18.58;;
35990;SDS011;22064;42.672;23.282;2023-09-18T02:10:10;33.25;;;18.85;;
35990;SDS011;22064;42.672;23.282;2023-09-18T02:12:38;35.47;;;19.98;;
35990;SDS011;22064;42.672;23.282;2023-09-18T02:15:05;32.65;;;19.65;;
35990;SDS011;22064;42.672;23.282;2023-09-18T02:17:32;35.83;;;19.25;;
35990;SDS011;22064;42.672;23.282;2023-09-18T02:19:58;32.90;;;19.30;;
35990;SDS011;22064;42.672;23.282;2023-09-18T02:22:26;30.15;;;18.40;;
35990;SDS011;22064;42.672;23.282;2023-09-18T02:24:52;30.60;;;18.92;;
35990;SDS011;22064;42.672;23.282;2023-09-18T02:27:18;31.10;;;17.77;;
35990;SDS011;22064;42.672;23.282;2023-09-18T02:29:45;35.78;;;22.20;;
35990;SDS011;22064;42.672;23.282;2023-09-18T02:32:10;30.10;;;18.70;;
35990;SDS011;22064;42.672;23.282;2023-09-18T02:34:36;34.30;;;20.15;;
35990;SDS011;22064;42.672;23.282;2023-09-18T02:37:02;32.60;;;19.10;;
35990;SDS011;22064;42.672;23.282;2023-09-18T02:39:28;36.65;;;20.25;;
35990;SDS011;22064;42.672;23.282;2023-09-18T02:41:54;31.95;;;19.02;;
35990;SDS011;22064;42.672;23.282;2023-09-18T02:44:21;30.27;;;19.85;;
35990;SDS011;22064;42.672;23.282;2023-09-18T02:46:47;33.88;;;19.73;;
35990;SDS011;22064;42.672;23.282;2023-09-18T02:49:13;31.70;;;20.33;;
35990;SDS011;22064;42.672;23.282;2023-09-18T02:51:39;37.63;;;21.73;;
35990;SDS011;22064;42.672;23.282;2023-09-18T02:54:05;36.72;;;20.38;;
35990;SDS011;22064;42.672;23.282;2023-09-18T02:56:32;33.88;;;19.60;;
35990;SDS011;22064;42.672;23.282;2023-09-18T02:58:58;34.55;;;22.17;;
35990;SDS011;22064;42.672;23.282;2023-09-18T03:01:24;32.95;;;20.88;;
35990;SDS011;22064;42.672;23.282;2023-09-18T03:03:49;36.10;;;19.85;;
35990;SDS011;22064;42.672;23.282;2023-09-18T03:06:15;37.30;;;21.83;;
35990;SDS011;22064;42.672;23.282;2023-09-18T03:08:41;32.55;;;19.92;;
35990;SDS011;22064;42.672;23.282;2023-09-18T03:11:12;36.35;;;21.33;;
35990;SDS011;22064;42.672;23.282;2023-09-18T03:13:42;35.05;;;21.33;;
35990;SDS011;22064;42.672;23.282;2023-09-18T03:16:11;35.50;;;20.27;;
35990;SDS011;22064;42.672;23.282;2023-09-18T03:18:38;32.67;;;20.85;;
35990;SDS011;22064;42.672;23.282;2023-09-18T03:21:04;36.95;;;20.98;;
35990;SDS011;22064;42.672;23.282;2023-09-18T03:23:30;39.00;;;22.58;;
35990;SDS011;22064;42.672;23.282;2023-09-18T03:25:56;36.63;;;22.42;;
35990;SDS011;22064;42.672;23.282;2023-09-18T03:28:22;37.55;;;22.02;;
35990;SDS011;22064;42.672;23.282;2023-09-18T03:30:49;36.38;;;22.83;;
35990;SDS011;22064;42.672;23.282;2023-09-18T03:33:18;36.92;;;22.00;;
35990;SDS011;22064;42.672;23.282;2023-09-18T03:35:45;37.45;;;22.10;;
35990;SDS011;22064;42.672;23.282;2023-09-18T03:38:17;35.20;;;20.55;;
35990;SDS011;22064;42.672;23.282;2023-09-18T03:40:43;39.72;;;22.85;;
35990;SDS011;22064;42.672;23.282;2023-09-18T03:43:10;37.08;;;21.60;;
35990;SDS011;22064;42.672;23.282;2023-09-18T03:45:37;42.25;;;24.67;;
35990;SDS011;22064;42.672;23.282;2023-09-18T03:48:07;37.72;;;22.92;;
35990;SDS011;22064;42.672;23.282;2023-09-18T03:50:32;38.05;;;23.05;;
35990;SDS011;22064;42.672;23.282;2023-09-18T03:52:59;40.55;;;23.77;;
35990;SDS011;22064;42.672;23.282;2023-09-18T03:55:25;44.25;;;24.27;;
35990;SDS011;22064;42.672;23.282;2023-09-18T03:57:52;44.63;;;25.35;;
35990;SDS011;22064;42.672;23.282;2023-09-18T04:00:18;40.78;;;23.83;;
35990;SDS011;22064;42.672;23.282;2023-09-18T04:02:44;43.22;;;26.00;;
35990;SDS011;22064;42.672;23.282;2023-09-18T04:05:11;40.97;;;25.40;;
35990;SDS011;22064;42.672;23.282;2023-09-18T04:07:37;39.15;;;24.27;;
35990;SDS011;22064;42.672;23.282;2023-09-18T04:10:03;41.25;;;25.42;;
35990;SDS011;22064;42.672;23.282;2023-09-18T04:12:31;39.35;;;24.48;;
35990;SDS011;22064;42.672;23.282;2023-09-18T04:14:57;37.45;;;24.85;;
35990;SDS011;22064;42.672;23.282;2023-09-18T04:17:23;40.40;;;25.30;;
35990;SDS011;22064;42.672;23.282;2023-09-18T04:19:50;41.72;;;25.40;;
35990;SDS011;22064;42.672;23.282;2023-09-18T04:22:15;44.40;;;25.63;;
35990;SDS011;22064;42.672;23.282;2023-09-18T04:24:41;42.45;;;26.48;;
35990;SDS011;22064;42.672;23.282;2023-09-18T04:27:08;41.97;;;26.27;;
35990;SDS011;22064;42.672;23.282;2023-09-18T04:29:34;41.67;;;25.88;;
35990;SDS011;22064;42.672;23.282;2023-09-18T04:32:02;44.17;;;25.98;;
35990;SDS011;22064;42.672;23.282;2023-09-18T04:34:30;41.63;;;26.70;;
35990;SDS011;22064;42.672;23.282;2023-09-18T04:36:56;43.28;;;26.48;;
35990;SDS011;22064;42.672;23.282;2023-09-18T04:39:22;40.78;;;24.60;;
35990;SDS011;22064;42.672;23.282;2023-09-18T04:41:48;39.38;;;24.48;;
35990;SDS011;22064;42.672;23.282;2023-09-18T04:44:14;42.75;;;25.20;;
35990;SDS011;22064;42.672;23.282;2023-09-18T04:46:40;39.25;;;24.67;;
35990;SDS011;22064;42.672;23.282;2023-09-18T04:49:09;40.50;;;24.60;;
35990;SDS011;22064;42.672;23.282;2023-09-18T04:51:37;39.50;;;24.10;;
35990;SDS011;22064;42.672;23.282;2023-09-18T04:54:04;41.03;;;25.45;;
35990;SDS011;22064;42.672;23.282;2023-09-18T04:56:31;40.88;;;25.35;;
35990;SDS011;22064;42.672;23.282;2023-09-18T04:58:56;37.92;;;24.40;;
35990;SDS011;22064;42.672;23.282;2023-09-18T05:01:23;35.50;;;24.02;;
35990;SDS011;22064;42.672;23.282;2023-09-18T05:03:50;36.78;;;23.50;;
35990;SDS011;22064;42.672;23.282;2023-09-18T05:06:16;39.78;;;24.25;;
35990;SDS011;22064;42.672;23.282;2023-09-18T05:08:43;37.90;;;24.42;;
35990;SDS011;22064;42.672;23.282;2023-09-18T05:11:09;39.85;;;23.92;;
35990;SDS011;22064;42.672;23.282;2023-09-18T05:13:35;37.22;;;23.38;;
35990;SDS011;22064;42.672;23.282;2023-09-18T05:16:01;38.17;;;23.80;;
35990;SDS011;22064;42.672;23.282;2023-09-18T05:18:28;40.05;;;23.95;;
35990;SDS011;22064;42.672;23.282;2023-09-18T05:20:55;38.80;;;24.58;;
35990;SDS011;22064;42.672;23.282;2023-09-18T05:23:21;37.25;;;23.10;;
35990;SDS011;22064;42.672;23.282;2023-09-18T05:25:47;38.00;;;23.08;;
35990;SDS011;22064;42.672;23.282;2023-09-18T05:28:13;38.60;;;24.25;;
35990;SDS011;22064;42.672;23.282;2023-09-18T05:30:39;34.95;;;23.13;;
35990;SDS011;22064;42.672;23.282;2023-09-18T05:33:05;36.17;;;22.92;;
35990;SDS011;22064;42.672;23.282;2023-09-18T05:35:42;37.28;;;23.17;;
35990;SDS011;22064;42.672;23.282;2023-09-18T05:38:09;36.70;;;23.27;;
35990;SDS011;22064;42.672;23.282;2023-09-18T05:40:36;35.38;;;21.40;;
35990;SDS011;22064;42.672;23.282;2023-09-18T05:43:02;35.05;;;22.30;;
35990;SDS011;22064;42.672;23.282;2023-09-18T05:45:29;36.83;;;22.88;;
35990;SDS011;22064;42.672;23.282;2023-09-18T05:47:56;35.33;;;22.20;;
35990;SDS011;22064;42.672;23.282;2023-09-18T05:50:32;41.22;;;23.27;;
35990;SDS011;22064;42.672;23.282;2023-09-18T05:53:01;36.33;;;22.17;;
35990;SDS011;22064;42.672;23.282;2023-09-18T05:55:29;37.90;;;22.83;;
35990;SDS011;22064;42.672;23.282;2023-09-18T05:57:57;33.28;;;21.73;;
35990;SDS011;22064;42.672;23.282;2023-09-18T06:00:23;37.42;;;22.60;;
35990;SDS011;22064;42.672;23.282;2023-09-18T06:02:49;34.15;;;21.27;;
35990;SDS011;22064;42.672;23.282;2023-09-18T06:05:16;35.40;;;21.33;;
35990;SDS011;22064;42.672;23.282;2023-09-18T06:07:44;36.17;;;21.77;;
35990;SDS011;22064;42.672;23.282;2023-09-18T06:10:10;34.45;;;21.55;;
35990;SDS011;22064;42.672;23.282;2023-09-18T06:12:38;33.45;;;20.17;;
35990;SDS011;22064;42.672;23.282;2023-09-18T06:15:08;31.23;;;19.52;;
35990;SDS011;22064;42.672;23.282;2023-09-18T06:17:38;34.00;;;20.02;;
35990;SDS011;22064;42.672;23.282;2023-09-18T06:20:05;31.70;;;19.88;;
35990;SDS011;22064;42.672;23.282;2023-09-18T06:22:38;31.58;;;20.10;;
35990;SDS011;22064;42.672;23.282;2023-09-18T06:25:06;30.70;;;20.45;;
35990;SDS011;22064;42.672;23.282;2023-09-18T06:27:35;33.65;;;19.55;;
35990;SDS011;22064;42.672;23.282;2023-09-18T06:30:05;31.25;;;19.25;;
35990;SDS011;22064;42.672;23.282;2023-09-18T06:32:32;31.33;;;19.17;;
35990;SDS011;22064;42.672;23.282;2023-09-18T06:34:58;30.85;;;18.80;;
35990;SDS011;22064;42.672;23.282;2023-09-18T06:37:24;32.47;;;19.90;;
35990;SDS011;22064;42.672;23.282;2023-09-18T06:39:50;31.83;;;20.08;;
35990;SDS011;22064;42.672;23.282;2023-09-18T06:42:17;32.20;;;21.30;;
35990;SDS011;22064;42.672;23.282;2023-09-18T06:44:43;32.53;;;19.63;;
35990;SDS011;22064;42.672;23.282;2023-09-18T06:47:10;32.47;;;19.88;;
35990;SDS011;22064;42.672;23.282;2023-09-18T06:49:36;28.70;;;17.38;;
35990;SDS011;22064;42.672;23.282;2023-09-18T06:52:03;26.17;;;17.00;;
35990;SDS011;22064;42.672;23.282;2023-09-18T06:54:30;29.50;;;18.23;;
35990;SDS011;22064;42.672;23.282;2023-09-18T06:56:56;35.03;;;19.50;;
35990;SDS011;22064;42.672;23.282;2023-09-18T06:59:22;30.15;;;19.23;;
35990;SDS011;22064;42.672;23.282;2023-09-18T07:01:48;28.33;;;17.70;;
35990;SDS011;22064;42.672;23.282;2023-09-18T07:04:14;29.95;;;18.52;;
35990;SDS011;22064;42.672;23.282;2023-09-18T07:06:40;27.92;;;17.77;;
35990;SDS011;22064;42.672;23.282;2023-09-18T07:09:06;30.73;;;18.67;;
35990;SDS011;22064;42.672;23.282;2023-09-18T07:11:33;30.05;;;18.58;;
35990;SDS011;22064;42.672;23.282;2023-09-18T07:13:59;29.33;;;17.23;;
35990;SDS011;22064;42.672;23.282;2023-09-18T07:16:26;30.45;;;17.85;;
35990;SDS011;22064;42.672;23.282;2023-09-18T07:18:52;31.17;;;17.92;;
35990;SDS011;22064;42.672;23.282;2023-09-18T07:21:18;26.33;;;16.38;;
35990;SDS011;22064;42.672;23.282;2023-09-18T07:23:45;26.67;;;15.45;;
35990;SDS011;22064;42.672;23.282;2023-09-18T07:26:11;23.38;;;14.98;;
35990;SDS011;22064;42.672;23.282;2023-09-18T07:28:37;24.00;;;15.35;;
35990;SDS011;22064;42.672;23.282;2023-09-18T07:31:07;25.90;;;15.13;;
35990;SDS011;22064;42.672;23.282;2023-09-18T07:33:34;26.95;;;15.63;;
35990;SDS011;22064;42.672;23.282;2023-09-18T07:36:00;24.23;;;14.85;;
35990;SDS011;22064;42.672;23.282;2023-09-18T07:38:26;23.92;;;14.75;;
35990;SDS011;22064;42.672;23.282;2023-09-18T07:40:52;24.63;;;14.35;;
35990;SDS011;22064;42.672;23.282;2023-09-18T07:43:18;25.58;;;14.88;;
35990;SDS011;22064;42.672;23.282;2023-09-18T07:45:44;24.40;;;15.18;;
35990;SDS011;22064;42.672;23.282;2023-09-18T07:48:09;23.60;;;14.38;;
35990;SDS011;22064;42.672;23.282;2023-09-18T07:50:35;24.63;;;15.05;;
35990;SDS011;22064;42.672;23.282;2023-09-18T07:53:02;27.58;;;16.35;;
35990;SDS011;22064;42.672;23.282;2023-09-18T07:55:28;27.95;;;16.40;;
35990;SDS011;22064;42.672;23.282;2023-09-18T07:57:55;26.88;;;15.27;;
35990;SDS011;22064;42.672;23.282;2023-09-18T08:00:21;24.95;;;14.90;;
35990;SDS011;22064;42.672;23.282;2023-09-18T08:02:48;26.33;;;14.65;;
35990;SDS011;22064;42.672;23.282;2023-09-18T08:05:18;26.85;;;15.07;;
35990;SDS011;22064;42.672;23.282;2023-09-18T08:07:44;28.02;;;15.90;;
35990;SDS011;22064;42.672;23.282;2023-09-18T08:10:12;24.23;;;14.02;;
35990;SDS011;22064;42.672;23.282;2023-09-18T08:12:38;23.88;;;13.60;;
35990;SDS011;22064;42.672;23.282;2023-09-18T08:15:04;24.48;;;14.85;;
35990;SDS011;22064;42.672;23.282;2023-09-18T08:17:31;28.08;;;15.52;;
35990;SDS011;22064;42.672;23.282;2023-09-18T08:19:58;24.23;;;14.93;;
35990;SDS011;22064;42.672;23.282;2023-09-18T08:22:24;24.95;;;14.95;;
35990;SDS011;22064;42.672;23.282;2023-09-18T08:24:50;26.50;;;15.10;;
35990;SDS011;22064;42.672;23.282;2023-09-18T08:27:19;25.80;;;16.27;;
35990;SDS011;22064;42.672;23.282;2023-09-18T08:29:45;23.98;;;14.73;;
35990;SDS011;22064;42.672;23.282;2023-09-18T08:32:12;23.63;;;15.00;;
35990;SDS011;22064;42.672;23.282;2023-09-18T08:34:38;25.58;;;14.82;;
35990;SDS011;22064;42.672;23.282;2023-09-18T08:37:04;25.58;;;15.57;;
35990;SDS011;22064;42.672;23.282;2023-09-18T08:39:30;24.55;;;14.57;;
35990;SDS011;22064;42.672;23.282;2023-09-18T08:41:59;26.13;;;16.17;;
35990;SDS011;22064;42.672;23.282;2023-09-18T08:44:29;24.67;;;14.65;;
35990;SDS011;22064;42.672;23.282;2023-09-18T08:46:56;24.02;;;14.82;;
35990;SDS011;22064;42.672;23.282;2023-09-18T08:49:23;23.92;;;14.27;;
35990;SDS011;22064;42.672;23.282;2023-09-18T08:51:50;26.10;;;15.07;;
35990;SDS011;22064;42.672;23.282;2023-09-18T08:54:19;23.87;;;14.20;;
35990;SDS011;22064;42.672;23.282;2023-09-18T08:56:46;23.92;;;13.45;;
35990;SDS011;22064;42.672;23.282;2023-09-18T08:59:12;24.58;;;14.45;;
35990;SDS011;22064;42.672;23.282;2023-09-18T09:01:39;24.20;;;14.35;;
35990;SDS011;22064;42.672;23.282;2023-09-18T09:04:05;25.88;;;15.70;;
35990;SDS011;22064;42.672;23.282;2023-09-18T09:06:31;24.33;;;14.45;;
35990;SDS011;22064;42.672;23.282;2023-09-18T09:08:57;22.08;;;13.10;;
35990;SDS011;22064;42.672;23.282;2023-09-18T09:11:24;22.55;;;12.98;;
35990;SDS011;22064;42.672;23.282;2023-09-18T09:14:08;25.73;;;14.55;;
35990;SDS011;22064;42.672;23.282;2023-09-18T09:16:35;22.85;;;13.98;;
35990;SDS011;22064;42.672;23.282;2023-09-18T09:19:01;22.05;;;14.07;;
35990;SDS011;22064;42.672;23.282;2023-09-18T09:21:37;21.48;;;13.50;;
35990;SDS011;22064;42.672;23.282;2023-09-18T09:24:05;21.02;;;11.80;;
35990;SDS011;22064;42.672;23.282;2023-09-18T09:26:31;21.65;;;13.05;;
35990;SDS011;22064;42.672;23.282;2023-09-18T09:28:57;21.85;;;12.25;;
35990;SDS011;22064;42.672;23.282;2023-09-18T09:31:40;21.33;;;11.77;;
35990;SDS011;22064;42.672;23.282;2023-09-18T09:34:07;19.70;;;11.43;;
35990;SDS011;22064;42.672;23.282;2023-09-18T09:36:34;19.83;;;11.35;;
35990;SDS011;22064;42.672;23.282;2023-09-18T09:39:00;22.63;;;11.18;;
35990;SDS011;22064;42.672;23.282;2023-09-18T09:41:30;21.65;;;11.68;;
35990;SDS011;22064;42.672;23.282;2023-09-18T09:43:57;19.95;;;11.85;;
35990;SDS011;22064;42.672;23.282;2023-09-18T09:46:23;18.92;;;10.68;;
35990;SDS011;22064;42.672;23.282;2023-09-18T09:48:57;17.10;;;10.32;;
35990;SDS011;22064;42.672;23.282;2023-09-18T09:51:24;20.60;;;9.77;;
35990;SDS011;22064;42.672;23.282;2023-09-18T09:53:50;17.67;;;9.15;;
35990;SDS011;22064;42.672;23.282;2023-09-18T09:56:16;16.30;;;8.90;;
35990;SDS011;22064;42.672;23.282;2023-09-18T09:59:04;17.83;;;10.38;;
35990;SDS011;22064;42.672;23.282;2023-09-18T10:01:37;18.02;;;9.65;;
35990;SDS011;22064;42.672;23.282;2023-09-18T10:04:12;18.33;;;9.85;;
35990;SDS011;22064;42.672;23.282;2023-09-18T10:06:52;14.82;;;8.40;;
35990;SDS011;22064;42.672;23.282;2023-09-18T10:09:27;19.33;;;10.20;;
35990;SDS011;22064;42.672;23.282;2023-09-18T10:11:55;18.10;;;10.82;;
35990;SDS011;22064;42.672;23.282;2023-09-18T10:14:32;21.52;;;11.27;;
35990;SDS011;22064;42.672;23.282;2023-09-18T10:17:18;16.45;;;9.88;;
35990;SDS011;22064;42.672;23.282;2023-09-18T10:22:37;16.35;;;9.23;;
35990;SDS011;22064;42.672;23.282;2023-09-18T10:25:15;16.80;;;8.95;;
35990;SDS011;22064;42.672;23.282;2023-09-18T10:27:50;18.05;;;9.68;;
35990;SDS011;22064;42.672;23.282;2023-09-18T10:30:19;15.25;;;8.93;;
35990;SDS011;22064;42.672;23.282;2023-09-18T10:35:15;16.73;;;9.60;;
35990;SDS011;22064;42.672;23.282;2023-09-18T10:37:41;14.65;;;8.55;;
35990;SDS011;22064;42.672;23.282;2023-09-18T10:40:11;17.75;;;8.68;;
35990;SDS011;22064;42.672;23.282;2023-09-18T10:42:39;19.80;;;9.23;;
35990;SDS011;22064;42.672;23.282;2023-09-18T10:45:10;15.20;;;8.73;;
35990;SDS011;22064;42.672;23.282;2023-09-18T10:47:41;13.55;;;7.78;;
35990;SDS011;22064;42.672;23.282;2023-09-18T10:50:10;16.33;;;9.30;;
35990;SDS011;22064;42.672;23.282;2023-09-18T10:52:43;16.60;;;9.25;;
35990;SDS011;22064;42.672;23.282;2023-09-18T10:55:13;13.23;;;8.48;;
35990;SDS011;22064;42.672;23.282;2023-09-18T10:57:52;12.20;;;8.10;;
35990;SDS011;22064;42.672;23.282;2023-09-18T11:00:27;12.98;;;7.70;;
35990;SDS011;22064;42.672;23.282;2023-09-18T11:03:11;12.55;;;7.55;;
35990;SDS011;22064;42.672;23.282;2023-09-18T11:05:39;15.18;;;7.93;;
35990;SDS011;22064;42.672;23.282;2023-09-18T11:08:24;12.15;;;7.60;;
35990;SDS011;22064;42.672;23.282;2023-09-18T11:10:54;15.95;;;7.53;;
35990;SDS011;22064;42.672;23.282;2023-09-18T11:13:36;12.48;;;7.32;;
35990;SDS011;22064;42.672;23.282;2023-09-18T11:16:33;13.35;;;7.60;;
35990;SDS011;22064;42.672;23.282;2023-09-18T11:21:30;14.70;;;7.70;;
35990;SDS011;22064;42.672;23.282;2023-09-18T11:26:30;13.00;;;6.40;;
35990;SDS011;22064;42.672;23.282;2023-09-18T11:29:13;10.65;;;6.68;;
35990;SDS011;22064;42.672;23.282;2023-09-18T11:31:42;11.70;;;6.18;;
35990;SDS011;22064;42.672;23.282;2023-09-18T11:34:14;12.40;;;7.38;;
35990;SDS011;22064;42.672;23.282;2023-09-18T11:36:42;11.75;;;6.70;;
35990;SDS011;22064;42.672;23.282;2023-09-18T11:39:08;9.38;;;5.70;;
35990;SDS011;22064;42.672;23.282;2023-09-18T11:41:35;10.40;;;6.00;;
35990;SDS011;22064;42.672;23.282;2023-09-18T11:46:45;13.10;;;6.63;;
35990;SDS011;22064;42.672;23.282;2023-09-18T11:49:14;9.77;;;6.43;;
35990;SDS011;22064;42.672;23.282;2023-09-18T11:51:47;8.43;;;6.05;;
35990;SDS011;22064;42.672;23.282;2023-09-18T11:54:13;10.05;;;6.13;;
35990;SDS011;22064;42.672;23.282;2023-09-18T11:56:42;11.77;;;6.20;;
35990;SDS011;22064;42.672;23.282;2023-09-18T11:59:08;12.55;;;6.43;;
35990;SDS011;22064;42.672;23.282;2023-09-18T12:01:36;12.38;;;6.00;;
35990;SDS011;22064;42.672;23.282;2023-09-18T12:04:05;10.35;;;7.10;;
35990;SDS011;22064;42.672;23.282;2023-09-18T12:06:35;9.68;;;6.35;;
35990;SDS011;22064;42.672;23.282;2023-09-18T12:09:02;12.43;;;6.95;;
35990;SDS011;22064;42.672;23.282;2023-09-18T12:11:29;10.43;;;6.10;;
35990;SDS011;22064;42.672;23.282;2023-09-18T12:13:55;11.93;;;5.75;;
35990;SDS011;22064;42.672;23.282;2023-09-18T12:16:23;11.13;;;6.00;;
35990;SDS011;22064;42.672;23.282;2023-09-18T12:18:49;12.95;;;5.95;;
35990;SDS011;22064;42.672;23.282;2023-09-18T12:21:16;10.07;;;6.13;;
35990;SDS011;22064;42.672;23.282;2023-09-18T12:23:44;8.32;;;5.70;;
35990;SDS011;22064;42.672;23.282;2023-09-18T12:26:12;9.25;;;6.00;;
35990;SDS011;22064;42.672;23.282;2023-09-18T12:28:43;13.68;;;6.43;;
35990;SDS011;22064;42.672;23.282;2023-09-18T12:31:12;9.93;;;5.40;;
35990;SDS011;22064;42.672;23.282;2023-09-18T12:33:40;8.27;;;5.90;;
35990;SDS011;22064;42.672;23.282;2023-09-18T12:36:10;9.45;;;5.80;;
35990;SDS011;22064;42.672;23.282;2023-09-18T12:38:38;9.25;;;6.10;;
35990;SDS011;22064;42.672;23.282;2023-09-18T12:41:05;9.35;;;5.95;;
35990;SDS011;22064;42.672;23.282;2023-09-18T12:43:40;11.40;;;6.30;;
35990;SDS011;22064;42.672;23.282;2023-09-18T12:46:09;8.80;;;5.90;;
35990;SDS011;22064;42.672;23.282;2023-09-18T12:48:39;9.05;;;5.90;;
35990;SDS011;22064;42.672;23.282;2023-09-18T12:51:11;13.73;;;6.20;;
35990;SDS011;22064;42.672;23.282;2023-09-18T12:53:37;10.45;;;6.20;;
35990;SDS011;22064;42.672;23.282;2023-09-18T12:56:13;8.75;;;5.88;;
35990;SDS011;22064;42.672;23.282;2023-09-18T12:58:40;14.45;;;6.47;;
35990;SDS011;22064;42.672;23.282;2023-09-18T13:01:07;10.50;;;6.40;;
35990;SDS011;22064;42.672;23.282;2023-09-18T13:03:34;12.27;;;6.13;;
35990;SDS011;22064;42.672;23.282;2023-09-18T13:06:11;12.60;;;6.45;;
35990;SDS011;22064;42.672;23.282;2023-09-18T13:08:42;10.68;;;6.15;;
35990;SDS011;22064;42.672;23.282;2023-09-18T13:11:09;11.18;;;6.03;;
35990;SDS011;22064;42.672;23.282;2023-09-18T13:13:36;10.95;;;6.10;;
35990;SDS011;22064;42.672;23.282;2023-09-18T13:16:05;9.45;;;6.13;;
35990;SDS011;22064;42.672;23.282;2023-09-18T13:18:32;10.40;;;6.70;;
35990;SDS011;22064;42.672;23.282;2023-09-18T13:20:59;9.88;;;5.97;;
35990;SDS011;22064;42.672;23.282;2023-09-18T13:23:31;7.43;;;5.45;;
35990;SDS011;22064;42.672;23.282;2023-09-18T13:25:59;10.30;;;5.88;;
35990;SDS011;22064;42.672;23.282;2023-09-18T13:28:26;9.13;;;5.85;;
35990;SDS011;22064;42.672;23.282;2023-09-18T13:30:52;10.35;;;5.72;;
35990;SDS011;22064;42.672;23.282;2023-09-18T13:33:18;8.48;;;5.45;;
35990;SDS011;22064;42.672;23.282;2023-09-18T13:35:45;8.35;;;5.82;;
35990;SDS011;22064;42.672;23.282;2023-09-18T13:38:11;12.02;;;6.18;;
35990;SDS011;22064;42.672;23.282;2023-09-18T13:40:38;7.80;;;5.70;;
35990;SDS011;22064;42.672;23.282;2023-09-18T13:43:05;9.02;;;5.75;;
35990;SDS011;22064;42.672;23.282;2023-09-18T13:45:32;10.73;;;5.93;;
35990;SDS011;22064;42.672;23.282;2023-09-18T13:47:58;9.68;;;5.88;;
35990;SDS011;22064;42.672;23.282;2023-09-18T13:50:24;9.73;;;5.82;;
35990;SDS011;22064;42.672;23.282;2023-09-18T13:52:50;7.38;;;5.40;;
35990;SDS011;22064;42.672;23.282;2023-09-18T13:55:16;9.43;;;5.38;;
35990;SDS011;22064;42.672;23.282;2023-09-18T13:57:42;9.60;;;5.82;;
35990;SDS011;22064;42.672;23.282;2023-09-18T14:00:09;9.35;;;5.72;;
35990;SDS011;22064;42.672;23.282;2023-09-18T14:02:40;8.10;;;5.22;;
35990;SDS011;22064;42.672;23.282;2023-09-18T14:05:07;8.50;;;5.28;;
35990;SDS011;22064;42.672;23.282;2023-09-18T14:07:35;9.75;;;5.90;;
35990;SDS011;22064;42.672;23.282;2023-09-18T14:10:05;10.10;;;5.32;;
35990;SDS011;22064;42.672;23.282;2023-09-18T14:12:32;8.48;;;5.60;;
35990;SDS011;22064;42.672;23.282;2023-09-18T14:14:58;8.13;;;5.22;;
35990;SDS011;22064;42.672;23.282;2023-09-18T14:17:25;8.02;;;5.75;;
35990;SDS011;22064;42.672;23.282;2023-09-18T14:19:51;9.27;;;5.68;;
35990;SDS011;22064;42.672;23.282;2023-09-18T14:22:19;14.15;;;5.53;;
35990;SDS011;22064;42.672;23.282;2023-09-18T14:24:45;8.20;;;5.78;;
35990;SDS011;22064;42.672;23.282;2023-09-18T14:27:11;11.45;;;6.10;;
35990;SDS011;22064;42.672;23.282;2023-09-18T14:29:38;9.77;;;5.40;;